createdAt,value
2022-11-29T00:01:24.645Z,267.58
2022-11-29T00:03:51.822Z,325.13
2022-11-29T00:06:23.497Z,347.42
2022-11-29T00:08:50.312Z,290.20
2022-11-29T00:11:38.986Z,393.27
2022-11-29T00:14:11.239Z,243.45
2022-11-29T00:16:40.662Z,245.03
2022-11-29T00:19:08.094Z,280.73
2022-11-29T00:21:34.456Z,354.60
2022-11-29T00:24:00.763Z,371.92
2022-11-29T00:26:27.226Z,336.42
2022-11-29T00:28:53.817Z,480.63
2022-11-29T00:31:22.975Z,381.17
2022-11-29T00:33:50.380Z,418.65
2022-11-29T00:36:17.493Z,286.25
2022-11-29T00:38:44.036Z,358.80
2022-11-29T00:41:11.349Z,319.77
2022-11-29T00:43:38.442Z,370.50
2022-11-29T00:46:05.564Z,358.92
2022-11-29T00:48:32.436Z,295.27
2022-11-29T00:50:58.771Z,529.33
2022-11-29T00:53:25.156Z,469.53
2022-11-29T00:55:52.641Z,356.80
2022-11-29T00:58:20.677Z,399.40
2022-11-29T01:00:47.680Z,461.73
2022-11-29T01:03:15.614Z,394.83
2022-11-29T01:05:42.932Z,269.23
2022-11-29T01:08:10.130Z,370.52
2022-11-29T01:10:36.783Z,346.60
2022-11-29T01:13:03.204Z,540.78
2022-11-29T01:15:29.778Z,382.75
2022-11-29T01:17:56.222Z,537.00
2022-11-29T01:20:22.813Z,585.35
2022-11-29T01:22:49.191Z,476.10
2022-11-29T01:25:15.589Z,437.75
2022-11-29T01:27:41.907Z,550.38
2022-11-29T01:30:09.852Z,322.77
2022-11-29T01:32:37.091Z,377.00
2022-11-29T01:35:04.853Z,528.92
2022-11-29T01:37:32.294Z,535.80
2022-11-29T01:39:58.729Z,150.10
2022-11-29T01:42:25.357Z,213.60
2022-11-29T01:45:06.234Z,170.05
2022-11-29T01:47:33.734Z,171.40
2022-11-29T01:50:00.538Z,124.13
2022-11-29T01:52:31.796Z,142.02
2022-11-29T01:55:03.884Z,106.57
2022-11-29T01:57:32.899Z,114.85
2022-11-29T02:00:06.702Z,88.13
2022-11-29T02:02:42.824Z,88.30
2022-11-29T02:05:10.145Z,103.05
2022-11-29T02:07:37.641Z,101.30
2022-11-29T02:10:06.655Z,124.00
2022-11-29T02:12:51.582Z,106.93
2022-11-29T02:15:28.781Z,86.70
2022-11-29T02:18:04.433Z,104.65
2022-11-29T02:20:51.974Z,80.40
2022-11-29T02:23:27.456Z,83.50
2022-11-29T02:26:02.346Z,116.82
2022-11-29T02:28:57.954Z,107.25
2022-11-29T02:31:49.161Z,73.80
2022-11-29T02:34:52.232Z,132.10
2022-11-29T02:37:43.410Z,124.72
2022-11-29T02:40:52.453Z,133.45
2022-11-29T02:43:59.417Z,82.13
2022-11-29T02:46:56.667Z,92.30
2022-11-29T02:49:54.095Z,95.50
2022-11-29T02:52:44.281Z,109.00
2022-11-29T02:55:22.791Z,92.22
2022-11-29T02:58:04.486Z,101.05
2022-11-29T03:00:35.588Z,104.03
2022-11-29T03:03:26.461Z,92.53
2022-11-29T03:06:28.365Z,81.07
2022-11-29T03:09:33.073Z,94.68
2022-11-29T03:12:37.131Z,110.70
2022-11-29T03:15:03.404Z,105.45
2022-11-29T03:17:38.967Z,138.90
2022-11-29T03:20:29.055Z,132.40
2022-11-29T03:23:18.683Z,104.65
2022-11-29T03:26:08.309Z,107.20
2022-11-29T03:28:44.122Z,131.43
2022-11-29T03:31:20.579Z,184.23
2022-11-29T03:34:03.165Z,120.82
2022-11-29T03:36:48.105Z,130.25
2022-11-29T03:39:37.750Z,107.45
2022-11-29T03:42:10.226Z,270.88
2022-11-29T03:44:46.706Z,134.73
2022-11-29T03:47:16.989Z,217.55
2022-11-29T03:49:54.569Z,152.00
2022-11-29T03:52:42.710Z,209.95
2022-11-29T03:55:09.078Z,145.13
2022-11-29T03:57:50.052Z,348.57
2022-11-29T04:00:18.229Z,200.95
2022-11-29T04:03:22.196Z,160.02
2022-11-29T04:06:14.525Z,270.63
2022-11-29T04:09:22.386Z,187.88
2022-11-29T04:12:26.613Z,238.03
2022-11-29T04:15:16.300Z,157.70
2022-11-29T04:18:01.717Z,211.27
2022-11-29T04:21:01.515Z,280.67
2022-11-29T04:23:43.038Z,284.15
2022-11-29T04:26:35.213Z,304.40
2022-11-29T04:29:25.923Z,296.88
2022-11-29T04:32:10.342Z,327.63
2022-11-29T04:35:13.672Z,299.10
2022-11-29T04:37:55.274Z,273.25
2022-11-29T04:40:27.528Z,277.80
2022-11-29T04:43:06.150Z,185.63
2022-11-29T04:45:35.506Z,176.50
2022-11-29T04:48:24.618Z,269.83
2022-11-29T04:51:09.888Z,183.00
2022-11-29T04:53:47.852Z,153.10
2022-11-29T04:56:20.470Z,212.80
2022-11-29T04:58:58.138Z,195.30
2022-11-29T05:01:36.081Z,177.50
2022-11-29T05:04:14.837Z,241.90
2022-11-29T05:07:18.595Z,159.10
2022-11-29T05:09:58.779Z,211.95
2022-11-29T05:12:53.401Z,162.02
2022-11-29T05:15:53.554Z,219.40
2022-11-29T05:18:44.912Z,117.38
2022-11-29T05:21:18.391Z,134.33
2022-11-29T05:24:23.973Z,121.15
2022-11-29T05:27:15.785Z,111.32
2022-11-29T05:30:04.959Z,93.55
2022-11-29T05:32:56.915Z,169.90
2022-11-29T05:35:44.735Z,100.93
2022-11-29T05:38:39.441Z,161.13
2022-11-29T05:41:30.568Z,128.77
2022-11-29T05:44:21.054Z,86.00
2022-11-29T05:46:56.553Z,181.00
2022-11-29T05:49:45.715Z,169.17
2022-11-29T05:52:20.229Z,150.73
2022-11-29T05:55:16.887Z,108.35
2022-11-29T05:57:55.114Z,79.93
2022-11-29T06:00:22.209Z,99.05
2022-11-29T06:03:25.339Z,107.37
2022-11-29T06:06:00.963Z,66.93
2022-11-29T06:08:55.445Z,70.65
2022-11-29T06:11:27.869Z,94.20
2022-11-29T06:14:09.084Z,109.18
2022-11-29T06:17:18.520Z,132.37
2022-11-29T06:20:15.100Z,102.53
2022-11-29T06:23:12.284Z,94.20
2022-11-29T06:26:07.204Z,126.80
2022-11-29T06:29:07.690Z,99.60
2022-11-29T06:31:44.394Z,97.07
2022-11-29T06:34:30.965Z,109.63
2022-11-29T06:37:08.335Z,87.95
2022-11-29T06:39:34.955Z,93.50
2022-11-29T06:42:01.296Z,108.03
2022-11-29T06:44:27.961Z,134.30
2022-11-29T06:47:35.908Z,112.75
2022-11-29T06:50:39.328Z,182.38
2022-11-29T06:53:20.570Z,95.30
2022-11-29T06:56:07.894Z,214.88
2022-11-29T06:58:57.824Z,132.60
2022-11-29T07:01:38.487Z,173.60
2022-11-29T07:04:32.375Z,198.93
2022-11-29T07:06:59.148Z,94.80
2022-11-29T07:09:33.360Z,109.03
2022-11-29T07:12:00.007Z,149.50
2022-11-29T07:14:26.691Z,91.88
2022-11-29T07:17:19.236Z,100.25
2022-11-29T07:20:00.320Z,202.85
2022-11-29T07:22:50.809Z,87.20
2022-11-29T07:25:17.069Z,112.07
2022-11-29T07:27:53.065Z,101.15
2022-11-29T07:30:22.906Z,121.20
2022-11-29T07:33:05.440Z,141.02
2022-11-29T07:36:00.952Z,95.05
2022-11-29T07:38:39.387Z,145.17
2022-11-29T07:41:38.552Z,149.07
2022-11-29T07:44:23.529Z,93.95
2022-11-29T07:46:49.958Z,73.53
2022-11-29T07:49:16.434Z,99.95
2022-11-29T07:51:43.200Z,53.87
2022-11-29T07:54:11.125Z,57.05
2022-11-29T07:56:37.456Z,72.95
2022-11-29T07:59:03.947Z,71.90
2022-11-29T08:01:31.226Z,56.22
2022-11-29T08:03:57.636Z,33.30
2022-11-29T08:06:27.125Z,55.53
2022-11-29T08:08:53.462Z,98.53
2022-11-29T08:11:19.868Z,91.65
2022-11-29T08:13:46.258Z,98.05
2022-11-29T08:16:18.936Z,111.73
2022-11-29T08:18:45.328Z,99.18
2022-11-29T08:21:11.778Z,70.65
2022-11-29T08:23:38.199Z,50.55
2022-11-29T08:26:04.662Z,51.92
2022-11-29T08:28:31.058Z,49.77
2022-11-29T08:31:05.081Z,59.65
2022-11-29T08:33:31.843Z,50.42
2022-11-29T08:36:05.189Z,73.43
2022-11-29T08:38:31.520Z,60.58
2022-11-29T08:41:05.821Z,54.53
2022-11-29T08:43:32.761Z,56.47
2022-11-29T08:45:59.521Z,41.30
2022-11-29T08:48:26.542Z,41.80
2022-11-29T08:50:54.849Z,37.38
2022-11-29T08:53:40.034Z,28.67
2022-11-29T08:56:31.804Z,34.55
2022-11-29T08:58:53.550Z,31.40
2022-11-29T09:01:20.354Z,28.52
2022-11-29T09:03:59.360Z,35.13
2022-11-29T09:06:49.122Z,44.73
2022-11-29T09:09:16.091Z,38.45
2022-11-29T09:11:46.893Z,45.83
2022-11-29T09:14:17.618Z,54.63
2022-11-29T09:16:43.997Z,63.95
2022-11-29T09:19:13.167Z,41.90
2022-11-29T09:21:39.490Z,42.13
2022-11-29T09:24:06.657Z,49.42
2022-11-29T09:26:35.774Z,67.30
2022-11-29T09:29:04.584Z,39.97
2022-11-29T09:31:32.331Z,68.00
2022-11-29T09:33:58.959Z,55.65
2022-11-29T09:36:29.255Z,49.42
2022-11-29T09:38:56.768Z,54.67
2022-11-29T09:41:51.882Z,39.13
2022-11-29T09:44:52.164Z,45.10
2022-11-29T09:47:39.901Z,62.60
2022-11-29T09:50:21.558Z,38.65
2022-11-29T09:53:26.043Z,41.78
2022-11-29T09:56:40.641Z,36.25
2022-11-29T09:59:23.295Z,35.73
2022-11-29T10:02:20.848Z,39.63
2022-11-29T10:04:56.578Z,20.83
2022-11-29T10:07:40.726Z,33.58
2022-11-29T10:10:12.318Z,30.98
2022-11-29T10:13:07.119Z,31.27
2022-11-29T10:15:40.253Z,40.90
2022-11-29T10:18:23.303Z,42.05
2022-11-29T10:20:52.343Z,27.80
2022-11-29T10:23:41.776Z,31.23
2022-11-29T10:26:10.476Z,35.93
2022-11-29T10:28:37.592Z,23.70
2022-11-29T10:31:23.214Z,31.60
2022-11-29T10:33:50.113Z,33.65
2022-11-29T10:36:28.066Z,23.77
2022-11-29T10:39:02.559Z,25.77
2022-11-29T10:41:29.123Z,25.10
2022-11-29T10:43:58.802Z,26.17
2022-11-29T10:46:30.119Z,27.42
2022-11-29T10:48:59.356Z,26.75
2022-11-29T10:51:25.898Z,25.30
2022-11-29T10:53:54.633Z,24.95
2022-11-29T10:56:29.568Z,31.55
2022-11-29T10:59:05.199Z,24.60
2022-11-29T11:01:36.987Z,18.13
2022-11-29T11:04:07.283Z,21.17
2022-11-29T11:06:44.389Z,27.17
2022-11-29T11:09:24.797Z,16.67
2022-11-29T11:11:53.924Z,25.02
2022-11-29T11:14:37.401Z,18.83
2022-11-29T11:17:15.789Z,28.53
2022-11-29T11:19:42.520Z,18.33
2022-11-29T11:22:21.147Z,16.65
2022-11-29T11:24:57.212Z,24.05
2022-11-29T11:27:32.992Z,17.00
2022-11-29T11:30:00.459Z,20.90
2022-11-29T11:32:26.863Z,20.48
2022-11-29T11:34:55.833Z,23.73
2022-11-29T11:37:28.065Z,17.85
2022-11-29T11:40:00.149Z,31.70
2022-11-29T11:42:38.154Z,25.20
2022-11-29T11:45:10.643Z,21.95
2022-11-29T11:47:43.634Z,20.67
2022-11-29T11:50:50.164Z,19.95
2022-11-29T11:53:37.885Z,23.45
2022-11-29T11:56:06.418Z,22.43
2022-11-29T11:58:54.521Z,27.63
2022-11-29T12:01:37.232Z,20.20
2022-11-29T12:04:17.735Z,17.85
2022-11-29T12:06:53.915Z,21.25
2022-11-29T12:09:52.805Z,26.30
2022-11-29T12:12:24.873Z,19.70
2022-11-29T12:15:02.222Z,24.83
2022-11-29T12:17:34.205Z,24.50
2022-11-29T12:20:21.904Z,22.38
2022-11-29T12:23:15.294Z,28.90
2022-11-29T12:26:19.305Z,22.73
2022-11-29T12:28:59.682Z,25.90
2022-11-29T12:32:20.431Z,35.35
2022-11-29T12:34:58.815Z,26.05
2022-11-29T12:37:55.091Z,20.97
2022-11-29T12:40:43.034Z,25.52
2022-11-29T12:43:39.520Z,21.77
2022-11-29T12:46:19.291Z,23.95
2022-11-29T12:49:01.275Z,21.67
2022-11-29T12:51:36.723Z,27.77
2022-11-29T12:54:15.735Z,18.63
2022-11-29T12:56:58.097Z,21.60
2022-11-29T13:00:01.894Z,19.63
2022-11-29T13:02:47.306Z,16.13
2022-11-29T13:05:29.752Z,20.27
2022-11-29T13:08:05.278Z,18.17
2022-11-29T13:10:34.702Z,18.80
2022-11-29T13:13:16.254Z,18.95
2022-11-29T13:15:52.299Z,14.88
2022-11-29T13:18:33.796Z,28.17
2022-11-29T13:21:05.871Z,19.20
2022-11-29T13:24:08.407Z,24.63
2022-11-29T13:26:36.543Z,16.17
2022-11-29T13:29:04.010Z,22.45
2022-11-29T13:31:31.173Z,16.07
2022-11-29T13:34:24.649Z,20.65
2022-11-29T13:37:00.046Z,17.45
2022-11-29T13:39:50.649Z,18.52
2022-11-29T13:42:29.061Z,18.60
2022-11-29T13:45:25.071Z,16.23
2022-11-29T13:47:54.343Z,25.00
2022-11-29T13:50:37.326Z,13.88
2022-11-29T13:53:12.608Z,20.30
2022-11-29T13:55:59.827Z,20.27
2022-11-29T13:58:28.972Z,18.13
2022-11-29T14:01:06.527Z,21.10
2022-11-29T14:03:38.641Z,18.00
2022-11-29T14:06:10.322Z,15.82
2022-11-29T14:09:38.054Z,18.33
2022-11-29T14:11:43.136Z,20.60
2022-11-29T14:14:15.260Z,15.32
2022-11-29T14:16:50.252Z,13.82
2022-11-29T14:19:26.748Z,11.90
2022-11-29T14:21:56.478Z,16.77
2022-11-29T14:24:39.580Z,15.17
2022-11-29T14:27:05.854Z,18.08
2022-11-29T14:29:47.780Z,12.65
2022-11-29T14:32:44.402Z,17.20
2022-11-29T14:35:12.364Z,13.68
2022-11-29T14:37:55.305Z,15.63
2022-11-29T14:40:27.467Z,15.40
2022-11-29T14:42:53.928Z,15.52
2022-11-29T14:45:32.118Z,16.75
2022-11-29T14:48:00.567Z,9.80
2022-11-29T14:50:33.396Z,13.43
2022-11-29T14:53:00.503Z,17.15
2022-11-29T14:55:26.741Z,8.02
2022-11-29T14:58:03.829Z,11.60
2022-11-29T15:00:49.081Z,12.95
2022-11-29T15:03:31.838Z,15.87
2022-11-29T15:06:11.369Z,9.70
2022-11-29T15:09:15.285Z,14.65
2022-11-29T15:12:14.347Z,11.30
2022-11-29T15:14:47.106Z,15.45
2022-11-29T15:17:31.950Z,24.60
2022-11-29T15:20:20.265Z,18.02
2022-11-29T15:22:52.830Z,14.50
2022-11-29T15:25:24.875Z,12.95
2022-11-29T15:27:52.722Z,15.30
2022-11-29T15:30:40.512Z,11.93
2022-11-29T15:33:22.783Z,10.88
2022-11-29T15:35:51.556Z,12.73
2022-11-29T15:38:20.289Z,13.57
2022-11-29T15:40:53.029Z,21.27
2022-11-29T15:43:30.282Z,15.27
2022-11-29T15:45:57.897Z,16.67
2022-11-29T15:48:29.319Z,17.05
2022-11-29T15:51:28.249Z,25.95
2022-11-29T15:54:13.429Z,29.05
2022-11-29T15:56:53.306Z,27.63
2022-11-29T15:59:42.362Z,20.60
2022-11-29T16:02:33.384Z,28.05
2022-11-29T16:05:24.848Z,21.70
2022-11-29T16:07:56.237Z,26.80
2022-11-29T16:10:52.749Z,16.20
2022-11-29T16:13:25.247Z,27.92
2022-11-29T16:16:06.671Z,23.45
2022-11-29T16:18:33.554Z,17.50
2022-11-29T16:21:05.631Z,20.10
2022-11-29T16:23:42.136Z,19.50
2022-11-29T16:26:43.853Z,20.25
2022-11-29T16:29:38.066Z,24.80
2022-11-29T16:32:23.285Z,22.95
2022-11-29T16:34:49.763Z,27.67
2022-11-29T16:37:20.515Z,26.83
2022-11-29T16:39:49.374Z,37.70
2022-11-29T16:42:26.173Z,29.58
2022-11-29T16:45:27.090Z,21.02
2022-11-29T16:47:59.380Z,30.30
2022-11-29T16:50:28.205Z,26.13
2022-11-29T16:52:56.795Z,22.88
2022-11-29T16:55:23.906Z,32.17
2022-11-29T16:57:51.968Z,19.10
2022-11-29T17:00:22.398Z,31.35
2022-11-29T17:02:49.121Z,31.73
2022-11-29T17:05:15.453Z,25.42
2022-11-29T17:07:42.130Z,32.67
2022-11-29T17:10:13.542Z,28.73
2022-11-29T17:12:44.769Z,24.65
2022-11-29T17:15:14.247Z,30.47
2022-11-29T17:17:43.174Z,30.83
2022-11-29T17:20:12.169Z,23.60
2022-11-29T17:22:38.747Z,29.17
2022-11-29T17:25:05.537Z,28.77
2022-11-29T17:27:31.921Z,29.20
2022-11-29T17:29:58.288Z,23.33
2022-11-29T17:32:26.882Z,28.10
2022-11-29T17:34:53.725Z,29.20
2022-11-29T17:37:20.145Z,25.25
2022-11-29T17:39:48.900Z,19.27
2022-11-29T17:42:15.261Z,30.83
2022-11-29T17:44:41.877Z,22.70
2022-11-29T17:47:08.309Z,21.60
2022-11-29T17:49:34.734Z,29.30
2022-11-29T17:52:01.049Z,30.80
2022-11-29T17:54:27.553Z,23.80
2022-11-29T17:56:53.873Z,19.45
2022-11-29T17:59:20.461Z,16.85
2022-11-29T18:01:47.139Z,18.75
2022-11-29T18:04:13.764Z,21.80
2022-11-29T18:06:40.416Z,24.52
2022-11-29T18:09:09.213Z,20.05
2022-11-29T18:11:47.436Z,15.75
2022-11-29T18:14:17.528Z,15.65
2022-11-29T18:16:45.396Z,14.05
2022-11-29T18:19:14.642Z,15.95
2022-11-29T18:21:41.096Z,20.80
2022-11-29T18:24:08.998Z,16.73
2022-11-29T18:26:36.520Z,18.42
2022-11-29T18:29:03.321Z,19.93
2022-11-29T18:31:34.838Z,15.23
2022-11-29T18:34:03.291Z,17.33
2022-11-29T18:36:32.489Z,16.25
2022-11-29T18:39:10.293Z,16.25
2022-11-29T18:41:37.784Z,14.10
2022-11-29T18:44:07.404Z,12.82
2022-11-29T18:46:36.653Z,11.95
2022-11-29T18:49:05.473Z,13.82
2022-11-29T18:51:32.554Z,11.48
2022-11-29T18:53:59.525Z,17.13
2022-11-29T18:56:29.329Z,16.65
2022-11-29T18:58:58.647Z,13.90
2022-11-29T19:01:27.475Z,25.42
2022-11-29T19:03:57.217Z,18.77
2022-11-29T19:06:26.049Z,21.13
2022-11-29T19:08:53.324Z,12.00
2022-11-29T19:11:21.700Z,14.32
2022-11-29T19:13:52.247Z,15.35
2022-11-29T19:16:19.412Z,18.13
2022-11-29T19:18:45.992Z,13.03
2022-11-29T19:21:13.201Z,10.20
2022-11-29T19:23:40.557Z,13.93
2022-11-29T19:26:09.251Z,12.25
2022-11-29T19:28:37.560Z,11.55
2022-11-29T19:31:07.124Z,10.67
2022-11-29T19:33:38.017Z,11.10
2022-11-29T19:36:10.410Z,18.42
2022-11-29T19:38:37.900Z,19.02
2022-11-29T19:41:11.470Z,10.43
2022-11-29T19:43:38.537Z,18.10
2022-11-29T19:46:25.228Z,16.05
2022-11-29T19:48:52.982Z,13.43
2022-11-29T19:51:20.149Z,19.23
2022-11-29T19:53:47.090Z,13.23
2022-11-29T19:56:15.771Z,11.63
2022-11-29T19:58:42.976Z,10.57
2022-11-29T20:01:22.711Z,15.15
2022-11-29T20:03:50.044Z,9.73
2022-11-29T20:06:17.143Z,7.80
2022-11-29T20:08:43.995Z,12.83
2022-11-29T20:11:13.224Z,12.48
2022-11-29T20:13:41.113Z,13.98
2022-11-29T20:16:12.991Z,13.55
2022-11-29T20:18:47.133Z,7.70
2022-11-29T20:21:20.470Z,11.13
2022-11-29T20:23:46.821Z,9.85
2022-11-29T20:26:19.315Z,11.63
2022-11-29T20:28:47.381Z,14.80
2022-11-29T20:31:17.142Z,10.77
2022-11-29T20:33:45.237Z,9.43
2022-11-29T20:36:17.551Z,7.75
2022-11-29T20:38:54.439Z,6.15
2022-11-29T20:41:53.087Z,7.10
2022-11-29T20:44:40.214Z,12.95
2022-11-29T20:47:40.198Z,15.13
2022-11-29T20:50:07.562Z,5.97
2022-11-29T20:53:14.973Z,8.43
2022-11-29T20:55:47.473Z,11.07
2022-11-29T20:58:14.610Z,7.65
2022-11-29T21:00:42.167Z,9.27
2022-11-29T21:03:08.590Z,12.60
2022-11-29T21:05:37.732Z,5.38
2022-11-29T21:08:04.248Z,8.15
2022-11-29T21:10:30.718Z,8.77
2022-11-29T21:12:57.484Z,6.77
2022-11-29T21:15:24.112Z,10.88
2022-11-29T21:17:50.750Z,10.82
2022-11-29T21:20:27.468Z,13.75
2022-11-29T21:22:58.791Z,8.77
2022-11-29T21:25:37.358Z,8.43
2022-11-29T21:28:08.469Z,9.93
2022-11-29T21:30:35.055Z,7.88
2022-11-29T21:33:01.733Z,15.25
2022-11-29T21:35:28.178Z,8.05
2022-11-29T21:37:58.983Z,13.27
2022-11-29T21:40:25.685Z,9.40
2022-11-29T21:42:52.081Z,7.85
2022-11-29T21:45:18.440Z,10.23
2022-11-29T21:47:45.378Z,8.48
2022-11-29T21:50:12.832Z,9.87
2022-11-29T21:52:40.106Z,7.90
2022-11-29T21:55:06.777Z,6.35
2022-11-29T21:57:33.154Z,10.15
2022-11-29T21:59:59.541Z,7.65
2022-11-29T22:02:25.957Z,10.47
2022-11-29T22:04:52.377Z,7.90
2022-11-29T22:07:18.788Z,9.90
2022-11-29T22:09:45.216Z,10.18
2022-11-29T22:12:32.633Z,9.40
2022-11-29T22:14:58.012Z,9.83
2022-11-29T22:17:24.334Z,16.02
2022-11-29T22:19:50.631Z,13.13
2022-11-29T22:22:17.215Z,9.38
2022-11-29T22:24:43.747Z,7.90
2022-11-29T22:27:10.252Z,15.70
2022-11-29T22:29:36.625Z,11.57
2022-11-29T22:32:03.057Z,12.63
2022-11-29T22:34:29.426Z,12.70
2022-11-29T22:36:55.847Z,10.40
2022-11-29T22:39:22.501Z,11.00
2022-11-29T22:41:53.893Z,13.63
2022-11-29T22:44:21.389Z,13.07
2022-11-29T22:46:47.784Z,10.63
2022-11-29T22:49:14.224Z,11.75
2022-11-29T22:51:40.653Z,11.20
2022-11-29T22:54:09.139Z,16.73
2022-11-29T22:56:38.089Z,12.65
2022-11-29T22:59:04.672Z,15.63
2022-11-29T23:01:33.015Z,14.73
2022-11-29T23:04:03.868Z,10.30
2022-11-29T23:06:32.853Z,16.98
2022-11-29T23:09:07.312Z,13.20
2022-11-29T23:11:33.733Z,13.48
2022-11-29T23:14:00.122Z,13.93
2022-11-29T23:16:29.880Z,12.40
2022-11-29T23:18:58.231Z,13.10
2022-11-29T23:21:33.071Z,12.15
2022-11-29T23:24:00.952Z,13.57
2022-11-29T23:26:29.834Z,12.85
2022-11-29T23:28:56.700Z,14.50
2022-11-29T23:31:24.058Z,11.45
2022-11-29T23:33:50.529Z,14.10
2022-11-29T23:36:17.589Z,17.58
2022-11-29T23:38:43.962Z,15.95
2022-11-29T23:41:11.597Z,16.87
2022-11-29T23:43:40.334Z,17.58
2022-11-29T23:46:13.453Z,15.15
2022-11-29T23:48:40.138Z,15.25
2022-11-29T23:51:06.680Z,14.95
2022-11-29T23:53:33.129Z,14.90
2022-11-29T23:56:05.343Z,13.45
2022-11-29T23:58:32.779Z,14.90
